Bettina K — PBEW — position and weather

sailwx.info

Track history (hours):
 
Tides and Currents Weather Stations Pressure Air Temp Water Temp Dewpoint Dewpoint Depression Visibility Wind Speed Wind Dir Waves Ship Positions

Bettina K

Last reported at 2017-Jun-20 15:09 UTC. Time now 2017-Jun-23 05:08 UTC.
Position N 57°46' E 010°30'.

Length 82 m; draft 5.1 m.

Type: Cargo ship. MMSI: 244730469.

Date/timePositionNaut miles runAvg speedWind from/ knotsBaromVisibWave heightAir tempDewpointWater temp
2017-Jun-20 15:09N 57°46' E 010°30'1 6.3
2017-Jun-20 15:00N 57°46' E 010°31'3 5.6
2017-Jun-20 14:30N 57°47' E 010°36'6 5.8
2017-Jun-20 13:30N 57°46' E 010°47'4 7.7
2017-Jun-20 13:00N 57°44' E 010°54'4 8.4
2017-Jun-20 12:28N 57°41' E 010°60'4 8.5
2017-Jun-20 12:00N 57°39' E 011°05'4 8.4
2017-Jun-20 11:30N 57°36' E 011°11'5 8.7
2017-Jun-20 10:59N 57°33' E 011°17'4 8.7
2017-Jun-20 10:30N 57°30' E 011°23'4 8.6
2017-Jun-20 10:00N 57°27' E 011°29'4 8.8
2017-Jun-20 09:30N 57°23' E 011°31'4 8.7
2017-Jun-20 09:00N 57°18' E 011°33'4 8.6
2017-Jun-20 08:30N 57°14' E 011°35'4 8.3
2017-Jun-20 08:00N 57°10' E 011°38'4 8.4
2017-Jun-20 07:30N 57°06' E 011°40'4 8.8
2017-Jun-20 07:00N 57°02' E 011°43'53 8.0
2017-Jun-20 00:25N 56°14' E 012°23'4 9.7
2017-Jun-20 00:00N 56°11' E 012°28'510.4
2017-Jun-19 23:30N 56°07' E 012°33'611.0
2017-Jun-19 23:00N 56°03' E 012°40'510.5
2017-Jun-19 22:30N 55°58' E 012°43'510.5
2017-Jun-19 22:00N 55°53' E 012°44'510.3
2017-Jun-19 21:30N 55°47' E 012°43'510.0
2017-Jun-19 21:00N 55°43' E 012°41'510.8
2017-Jun-19 20:30N 55°37' E 012°42'510.2
2017-Jun-19 20:01N 55°32' E 012°43'510.6
2017-Jun-19 19:30N 55°27' E 012°42'510.2
2017-Jun-19 19:00N 55°22' E 012°41'4 8.8
2017-Jun-19 18:30N 55°18' E 012°44'5 9.5
2017-Jun-19 18:00N 55°16' E 012°52'5 9.7
2017-Jun-19 17:30N 55°15' E 013°01'5 9.6
2017-Jun-19 17:00N 55°15' E 013°09'5 9.6
2017-Jun-19 16:30N 55°15' E 013°18'5 9.5
2017-Jun-19 16:00N 55°15' E 013°26'5 9.5
2017-Jun-19 15:30N 55°15' E 013°34'5 9.5
2017-Jun-19 15:00N 55°15' E 013°43'10 9.6
2017-Jun-19 14:00N 55°14' E 013°59'5 9.6
2017-Jun-19 13:30N 55°14' E 014°08'5 9.3
2017-Jun-19 13:00N 55°14' E 014°16'5 9.8
2017-Jun-19 12:30N 55°18' E 014°22'5 9.7
2017-Jun-19 12:00N 55°21' E 014°28'5 9.6
2017-Jun-19 11:30N 55°25' E 014°33'5 9.2
2017-Jun-19 11:00N 55°27' E 014°40'5 9.4
2017-Jun-19 10:30N 55°30' E 014°47'5 9.7
2017-Jun-19 09:59N 55°32' E 014°55'5 9.8
2017-Jun-19 09:30N 55°35' E 015°02'5 9.8
2017-Jun-19 09:00N 55°37' E 015°10'5 9.7
2017-Jun-19 08:30N 55°40' E 015°17'5 9.5
2017-Jun-19 08:00N 55°42' E 015°24'5 9.5
2017-Jun-19 07:30N 55°45' E 015°31'5 9.6
2017-Jun-19 07:00N 55°47' E 015°39'5 9.6
2017-Jun-19 06:30N 55°49' E 015°46'5 9.7
2017-Jun-19 06:00N 55°52' E 015°54'5 9.5
2017-Jun-19 05:30N 55°54' E 016°01'5 9.5
2017-Jun-19 05:00N 55°57' E 016°08'5 9.6
2017-Jun-19 04:30N 55°59' E 016°16'5 9.7
2017-Jun-19 04:00N 56°02' E 016°23'5 9.8
2017-Jun-19 03:30N 56°04' E 016°30'5 9.7
2017-Jun-19 03:00N 56°07' E 016°38'5 9.6
2017-Jun-19 02:30N 56°10' E 016°45'5 9.6
2017-Jun-19 02:00N 56°12' E 016°52'5 9.6
2017-Jun-19 01:30N 56°15' E 016°59'5 9.6
2017-Jun-19 00:59N 56°18' E 017°06'5 9.6
2017-Jun-19 00:30N 56°21' E 017°13'5 9.8
2017-Jun-19 00:00N 56°23' E 017°20'116 9.4
2017-Jun-18 11:34N 57°22' E 020°25'1 9.3
2017-Jun-18 11:27N 57°22' E 020°27'4 9.1
2017-Jun-18 11:00N 57°24' E 020°33'5 9.1
2017-Jun-18 10:30N 57°26' E 020°41'5 9.0
2017-Jun-18 09:58N 57°29' E 020°49'4 8.9
2017-Jun-18 09:30N 57°31' E 020°56'5 9.0
2017-Jun-18 08:58N 57°33' E 021°03'4 9.0
2017-Jun-18 08:30N 57°35' E 021°10'5 8.8
2017-Jun-18 08:00N 57°37' E 021°18'4 8.7
2017-Jun-18 07:30N 57°39' E 021°25'4 8.9
2017-Jun-18 07:00N 57°40' E 021°33'5 9.0
2017-Jun-18 06:30N 57°40' E 021°41'6 9.1
2017-Jun-18 05:50N 57°41' E 021°53'3 9.4
2017-Jun-18 05:30N 57°42' E 021°58'5 9.6
2017-Jun-18 05:00N 57°44' E 022°07'5 9.5
2017-Jun-18 04:30N 57°46' E 022°15'5 9.5
2017-Jun-18 04:00N 57°48' E 022°23'5 9.5
2017-Jun-18 03:30N 57°50' E 022°31'5 9.3
2017-Jun-18 03:01N 57°50' E 022°39'5 9.3
2017-Jun-18 02:30N 57°47' E 022°47'5 9.7
2017-Jun-18 01:59N 57°44' E 022°53'5 9.7
2017-Jun-18 01:30N 57°40' E 022°59'5 9.6
2017-Jun-18 01:00N 57°37' E 023°05'5 9.6
2017-Jun-18 00:30N 57°33' E 023°12'  
2017-Jun-13 07:38N 56°04' E 016°46'2 9.4
2017-Jun-13 07:28N 56°03' E 016°44'57 9.5
2017-Jun-13 01:30N 55°34' E 015°17'5 9.3
2017-Jun-13 01:00N 55°32' E 015°09'5 9.5
2017-Jun-13 00:30N 55°30' E 015°02'5 9.4
2017-Jun-13 00:00N 55°27' E 014°55'5 9.5
2017-Jun-12 23:30N 55°25' E 014°48'5 9.5
2017-Jun-12 23:00N 55°23' E 014°41'5 9.1
2017-Jun-12 22:30N 55°19' E 014°35'5 9.1
2017-Jun-12 22:00N 55°16' E 014°30'5 9.0
2017-Jun-12 21:30N 55°12' E 014°25'4 8.7
2017-Jun-12 21:00N 55°09' E 014°20'4 8.6
2017-Jun-12 20:30N 55°06' E 014°15'4 8.6
2017-Jun-12 20:00N 55°03' E 014°10'4 8.9
2017-Jun-12 19:30N 55°00' E 014°04'6 9.5
2017-Jun-12 18:55N 54°58' E 013°55'37 9.5
2017-Jun-12 15:01N 54°46' E 012°54'0 9.7
2017-Jun-12 15:00N 54°46' E 012°54'5 9.8
2017-Jun-12 14:30N 54°44' E 012°46'9 9.4
2017-Jun-12 13:30N 54°39' E 012°33'15 9.7
2017-Jun-12 11:54N 54°28' E 012°14'6 9.4
2017-Jun-12 11:16N 54°24' E 012°05'310.2
2017-Jun-12 10:58N 54°24' E 012°00'3010.0
2017-Jun-12 07:57N 54°34' E 011°10'71 7.2
2017-Jun-11 22:03N 54°05' E 009°19'0 8.4
2017-Jun-11 22:00N 54°04' E 009°19'4 8.4
2017-Jun-11 21:31N 54°00' E 009°18'4 8.3
2017-Jun-11 21:00N 53°57' E 009°14'3 5.9
2017-Jun-11 20:30N 53°54' E 009°10'1 2.1
2017-Jun-11 19:55N 53°54' E 009°09'0 0.5
2017-Jun-11 19:31N 53°54' E 009°08'3 6.1
2017-Jun-11 19:01N 53°52' E 009°04'3 6.1
2017-Jun-11 18:30N 53°51' E 008°59'3 5.8
2017-Jun-11 18:01N 53°50' E 008°54'3 5.9
2017-Jun-11 17:30N 53°50' E 008°49'3 5.7
2017-Jun-11 17:00N 53°51' E 008°45'3 6.2
2017-Jun-11 16:30N 53°54' E 008°41'3 6.4
2017-Jun-11 16:00N 53°57' E 008°39'3 6.9
2017-Jun-11 15:30N 53°58' E 008°33'4 7.4
2017-Jun-11 14:59N 53°59' E 008°27'6310.0
2017-Jun-11 08:39N 53°47' E 006°41'211.2
2017-Jun-11 08:30N 53°46' E 006°38'2610.9
2017-Jun-11 06:10N 53°39' E 005°57'510.7
2017-Jun-11 05:41N 53°38' E 005°49'310.4
2017-Jun-11 05:26N 53°37' E 005°44'410.1
2017-Jun-11 05:00N 53°35' E 005°38'5 9.8
2017-Jun-11 04:28N 53°34' E 005°29'12 9.0
2017-Jun-11 03:11N 53°30' E 005°11'2 8.7
2017-Jun-11 02:58N 53°29' E 005°08'18 8.6
2017-Jun-11 00:52N 53°21' E 004°41'3 8.9
2017-Jun-11 00:30N 53°18' E 004°39'8 8.9
2017-Jun-10 23:35N 53°10' E 004°34'1 8.7
2017-Jun-10 23:30N 53°10' E 004°33'4 8.7
2017-Jun-10 23:00N 53°05' E 004°32'4 8.8
2017-Jun-10 22:30N 53°01' E 004°30'4 8.9
2017-Jun-10 22:00N 52°57' E 004°29'4 9.0
2017-Jun-10 21:30N 52°52' E 004°27'5 9.0
2017-Jun-10 21:00N 52°48' E 004°26'4 8.9
2017-Jun-10 20:30N 52°43' E 004°26'5 9.2
2017-Jun-10 20:00N 52°39' E 004°28'4 9.0
2017-Jun-10 19:30N 52°35' E 004°31'4 8.6
2017-Jun-10 19:00N 52°30' E 004°31'3 6.8
2017-Jun-10 18:31N 52°28' E 004°35'1 1.7
2017-Jun-10 18:01N 52°28' E 004°36'2 4.7
2017-Jun-10 17:30N 52°28' E 004°40'4 9.0
2017-Jun-10 17:01N 52°26' E 004°46'2 4.1
2017-Jun-10 16:28N 52°25' E 004°50'0 0.0
2017-Jun-10 15:58N 52°25' E 004°50'0 0.0
2017-Jun-10 15:28N 52°25' E 004°50'  
Track history (hours):
 
Tides and Currents Weather Stations Pressure Air Temp Water Temp Dewpoint Dewpoint Depression Visibility Wind Speed Wind Dir Waves Ship Positions

Bettina K

Last reported at 2017-Jun-20 15:09 UTC. Time now 2017-Jun-23 05:08 UTC.
Position N 57°46' E 010°30'.

Length 82 m; draft 5.1 m.

Type: Cargo ship. MMSI: 244730469.

Date/timePositionNaut miles runAvg speedWind from/ knotsBaromVisibWave heightAir tempDewpointWater temp
2017-Jun-20 15:09N 57°46' E 010°30'1 6.3
2017-Jun-20 15:00N 57°46' E 010°31'3 5.6
2017-Jun-20 14:30N 57°47' E 010°36'6 5.8
2017-Jun-20 13:30N 57°46' E 010°47'4 7.7
2017-Jun-20 13:00N 57°44' E 010°54'4 8.4
2017-Jun-20 12:28N 57°41' E 010°60'4 8.5
2017-Jun-20 12:00N 57°39' E 011°05'4 8.4
2017-Jun-20 11:30N 57°36' E 011°11'5 8.7
2017-Jun-20 10:59N 57°33' E 011°17'4 8.7
2017-Jun-20 10:30N 57°30' E 011°23'4 8.6
2017-Jun-20 10:00N 57°27' E 011°29'4 8.8
2017-Jun-20 09:30N 57°23' E 011°31'4 8.7
2017-Jun-20 09:00N 57°18' E 011°33'4 8.6
2017-Jun-20 08:30N 57°14' E 011°35'4 8.3
2017-Jun-20 08:00N 57°10' E 011°38'4 8.4
2017-Jun-20 07:30N 57°06' E 011°40'4 8.8
2017-Jun-20 07:00N 57°02' E 011°43'53 8.0
2017-Jun-20 00:25N 56°14' E 012°23'4 9.7
2017-Jun-20 00:00N 56°11' E 012°28'510.4
2017-Jun-19 23:30N 56°07' E 012°33'611.0
2017-Jun-19 23:00N 56°03' E 012°40'510.5
2017-Jun-19 22:30N 55°58' E 012°43'510.5
2017-Jun-19 22:00N 55°53' E 012°44'510.3
2017-Jun-19 21:30N 55°47' E 012°43'510.0
2017-Jun-19 21:00N 55°43' E 012°41'510.8
2017-Jun-19 20:30N 55°37' E 012°42'510.2
2017-Jun-19 20:01N 55°32' E 012°43'510.6
2017-Jun-19 19:30N 55°27' E 012°42'510.2
2017-Jun-19 19:00N 55°22' E 012°41'4 8.8
2017-Jun-19 18:30N 55°18' E 012°44'5 9.5
2017-Jun-19 18:00N 55°16' E 012°52'5 9.7
2017-Jun-19 17:30N 55°15' E 013°01'5 9.6
2017-Jun-19 17:00N 55°15' E 013°09'5 9.6
2017-Jun-19 16:30N 55°15' E 013°18'5 9.5
2017-Jun-19 16:00N 55°15' E 013°26'5 9.5
2017-Jun-19 15:30N 55°15' E 013°34'5 9.5
2017-Jun-19 15:00N 55°15' E 013°43'10 9.6
2017-Jun-19 14:00N 55°14' E 013°59'5 9.6
2017-Jun-19 13:30N 55°14' E 014°08'5 9.3
2017-Jun-19 13:00N 55°14' E 014°16'5 9.8
2017-Jun-19 12:30N 55°18' E 014°22'5 9.7
2017-Jun-19 12:00N 55°21' E 014°28'5 9.6
2017-Jun-19 11:30N 55°25' E 014°33'5 9.2
2017-Jun-19 11:00N 55°27' E 014°40'5 9.4
2017-Jun-19 10:30N 55°30' E 014°47'5 9.7
2017-Jun-19 09:59N 55°32' E 014°55'5 9.8
2017-Jun-19 09:30N 55°35' E 015°02'5 9.8
2017-Jun-19 09:00N 55°37' E 015°10'5 9.7
2017-Jun-19 08:30N 55°40' E 015°17'5 9.5
2017-Jun-19 08:00N 55°42' E 015°24'5 9.5
2017-Jun-19 07:30N 55°45' E 015°31'5 9.6
2017-Jun-19 07:00N 55°47' E 015°39'5 9.6
2017-Jun-19 06:30N 55°49' E 015°46'5 9.7
2017-Jun-19 06:00N 55°52' E 015°54'5 9.5
2017-Jun-19 05:30N 55°54' E 016°01'5 9.5
2017-Jun-19 05:00N 55°57' E 016°08'5 9.6
2017-Jun-19 04:30N 55°59' E 016°16'5 9.7
2017-Jun-19 04:00N 56°02' E 016°23'5 9.8
2017-Jun-19 03:30N 56°04' E 016°30'5 9.7
2017-Jun-19 03:00N 56°07' E 016°38'5 9.6
2017-Jun-19 02:30N 56°10' E 016°45'5 9.6
2017-Jun-19 02:00N 56°12' E 016°52'5 9.6
2017-Jun-19 01:30N 56°15' E 016°59'5 9.6
2017-Jun-19 00:59N 56°18' E 017°06'5 9.6
2017-Jun-19 00:30N 56°21' E 017°13'5 9.8
2017-Jun-19 00:00N 56°23' E 017°20'116 9.4
2017-Jun-18 11:34N 57°22' E 020°25'1 9.3
2017-Jun-18 11:27N 57°22' E 020°27'4 9.1
2017-Jun-18 11:00N 57°24' E 020°33'5 9.1
2017-Jun-18 10:30N 57°26' E 020°41'5 9.0
2017-Jun-18 09:58N 57°29' E 020°49'4 8.9
2017-Jun-18 09:30N 57°31' E 020°56'5 9.0
2017-Jun-18 08:58N 57°33' E 021°03'4 9.0
2017-Jun-18 08:30N 57°35' E 021°10'5 8.8
2017-Jun-18 08:00N 57°37' E 021°18'4 8.7
2017-Jun-18 07:30N 57°39' E 021°25'4 8.9
2017-Jun-18 07:00N 57°40' E 021°33'5 9.0
2017-Jun-18 06:30N 57°40' E 021°41'6 9.1
2017-Jun-18 05:50N 57°41' E 021°53'3 9.4
2017-Jun-18 05:30N 57°42' E 021°58'5 9.6
2017-Jun-18 05:00N 57°44' E 022°07'5 9.5
2017-Jun-18 04:30N 57°46' E 022°15'5 9.5
2017-Jun-18 04:00N 57°48' E 022°23'5 9.5
2017-Jun-18 03:30N 57°50' E 022°31'5 9.3
2017-Jun-18 03:01N 57°50' E 022°39'5 9.3
2017-Jun-18 02:30N 57°47' E 022°47'5 9.7
2017-Jun-18 01:59N 57°44' E 022°53'5 9.7
2017-Jun-18 01:30N 57°40' E 022°59'5 9.6
2017-Jun-18 01:00N 57°37' E 023°05'5 9.6
2017-Jun-18 00:30N 57°33' E 023°12'  
2017-Jun-13 07:38N 56°04' E 016°46'2 9.4
2017-Jun-13 07:28N 56°03' E 016°44'57 9.5
2017-Jun-13 01:30N 55°34' E 015°17'5 9.3
2017-Jun-13 01:00N 55°32' E 015°09'5 9.5
2017-Jun-13 00:30N 55°30' E 015°02'5 9.4
2017-Jun-13 00:00N 55°27' E 014°55'5 9.5
2017-Jun-12 23:30N 55°25' E 014°48'5 9.5
2017-Jun-12 23:00N 55°23' E 014°41'5 9.1
2017-Jun-12 22:30N 55°19' E 014°35'5 9.1
2017-Jun-12 22:00N 55°16' E 014°30'5 9.0
2017-Jun-12 21:30N 55°12' E 014°25'4 8.7
2017-Jun-12 21:00N 55°09' E 014°20'4 8.6
2017-Jun-12 20:30N 55°06' E 014°15'4 8.6
2017-Jun-12 20:00N 55°03' E 014°10'4 8.9
2017-Jun-12 19:30N 55°00' E 014°04'6 9.5
2017-Jun-12 18:55N 54°58' E 013°55'37 9.5
2017-Jun-12 15:01N 54°46' E 012°54'0 9.7
2017-Jun-12 15:00N 54°46' E 012°54'5 9.8
2017-Jun-12 14:30N 54°44' E 012°46'9 9.4
2017-Jun-12 13:30N 54°39' E 012°33'15 9.7
2017-Jun-12 11:54N 54°28' E 012°14'6 9.4
2017-Jun-12 11:16N 54°24' E 012°05'310.2
2017-Jun-12 10:58N 54°24' E 012°00'3010.0
2017-Jun-12 07:57N 54°34' E 011°10'71 7.2
2017-Jun-11 22:03N 54°05' E 009°19'0 8.4
2017-Jun-11 22:00N 54°04' E 009°19'4 8.4
2017-Jun-11 21:31N 54°00' E 009°18'4 8.3
2017-Jun-11 21:00N 53°57' E 009°14'3 5.9
2017-Jun-11 20:30N 53°54' E 009°10'1 2.1
2017-Jun-11 19:55N 53°54' E 009°09'0 0.5
2017-Jun-11 19:31N 53°54' E 009°08'3 6.1
2017-Jun-11 19:01N 53°52' E 009°04'3 6.1
2017-Jun-11 18:30N 53°51' E 008°59'3 5.8
2017-Jun-11 18:01N 53°50' E 008°54'3 5.9
2017-Jun-11 17:30N 53°50' E 008°49'3 5.7
2017-Jun-11 17:00N 53°51' E 008°45'3 6.2
2017-Jun-11 16:30N 53°54' E 008°41'3 6.4
2017-Jun-11 16:00N 53°57' E 008°39'3 6.9
2017-Jun-11 15:30N 53°58' E 008°33'4 7.4
2017-Jun-11 14:59N 53°59' E 008°27'6310.0
2017-Jun-11 08:39N 53°47' E 006°41'211.2
2017-Jun-11 08:30N 53°46' E 006°38'2610.9
2017-Jun-11 06:10N 53°39' E 005°57'510.7
2017-Jun-11 05:41N 53°38' E 005°49'310.4
2017-Jun-11 05:26N 53°37' E 005°44'410.1
2017-Jun-11 05:00N 53°35' E 005°38'5 9.8
2017-Jun-11 04:28N 53°34' E 005°29'12 9.0
2017-Jun-11 03:11N 53°30' E 005°11'2 8.7
2017-Jun-11 02:58N 53°29' E 005°08'18 8.6
2017-Jun-11 00:52N 53°21' E 004°41'3 8.9
2017-Jun-11 00:30N 53°18' E 004°39'8 8.9
2017-Jun-10 23:35N 53°10' E 004°34'1 8.7
2017-Jun-10 23:30N 53°10' E 004°33'4 8.7
2017-Jun-10 23:00N 53°05' E 004°32'4 8.8
2017-Jun-10 22:30N 53°01' E 004°30'4 8.9
2017-Jun-10 22:00N 52°57' E 004°29'4 9.0
2017-Jun-10 21:30N 52°52' E 004°27'5 9.0
2017-Jun-10 21:00N 52°48' E 004°26'4 8.9
2017-Jun-10 20:30N 52°43' E 004°26'5 9.2
2017-Jun-10 20:00N 52°39' E 004°28'4 9.0
2017-Jun-10 19:30N 52°35' E 004°31'4 8.6
2017-Jun-10 19:00N 52°30' E 004°31'3 6.8
2017-Jun-10 18:31N 52°28' E 004°35'1 1.7
2017-Jun-10 18:01N 52°28' E 004°36'2 4.7
2017-Jun-10 17:30N 52°28' E 004°40'4 9.0
2017-Jun-10 17:01N 52°26' E 004°46'2 4.1
2017-Jun-10 16:28N 52°25' E 004°50'0 0.0
2017-Jun-10 15:58N 52°25' E 004°50'0 0.0
2017-Jun-10 15:28N 52°25' E 004°50'  

Dump ship's entire track history